CheckWX is a tool to help pilots better visualize weather data.  It is not intended as a substitute for an official pre-flight weather briefing.

06:52:51 UTC

EGPF TAF
Glasgow International Airport
Glasgow, United Kingdom
TAF EGPF 260504Z 2606/2706 09005KT 9999 SCT020 TEMPO 2606/2609 7000 BKN012 PROB30 2615/2621 29010KT TEMPO 2700/2706 7000 PROB30 TEMPO 2703/2706 4000 BR

Jun-26@
06:00 UTC

Jun-26 @ 06:00 UTC

Jun-27@
06:00 UTC

Jun-27 @ 06:00 UTC

TAF EGPF 260504Z 2606/2706 09005KT 9999 SCT020
Wind
  • 090° at 5 KTS
Cloud Levels
  • Scattered at 2,000' AGL

Jun-26@
06:00 UTC

Jun-26 @ 06:00 UTC

Jun-26@
09:00 UTC

Jun-26 @ 09:00 UTC

TEMPO 2606/2609 7000 BKN012

Temporary

Temporary Changes expected for less than half the time period

Cloud Levels
  • Broken at 1,200' AGL

Jun-26@
15:00 UTC

Jun-26 @ 15:00 UTC

Jun-26@
21:00 UTC

Jun-26 @ 21:00 UTC

PROB30 2615/2621 29010KT

Probable - 30% Likelihood

Probable - 30% Likelihood during this time.

Wind
  • 290° at 10 KTS

Jun-27@
00:00 UTC

Jun-27 @ 00:00 UTC

Jun-27@
06:00 UTC

Jun-27 @ 06:00 UTC

TEMPO 2700/2706 7000

Temporary

Temporary Changes expected for less than half the time period

Jun-27@
03:00 UTC

Jun-27 @ 03:00 UTC

Jun-27@
06:00 UTC

Jun-27 @ 06:00 UTC

PROB30 TEMPO 2703/2706 4000 BR

Temporary - 30% Likelihood

Temporary - 30% Likelihood during this time.

Conditions
Mist